0S9

Jefferson County International Airport

Port Townsend, Washington, USA
METAR K0S9 110155Z AUTO 00000KT 3/4SM BR BKN015 BKN029 02/02 A3019 RMK AO2
Observed Flight Rules
Dec-11 @ 01:55 UTC (30 minutes ago) Instrument Flight Rules
Visibility Clouds Conditions
3/4 miles
  • Broken at 1,500' AGL
  • Broken at 2,900' AGL
  • Mist
Temperatures Readings
Current 2°C / 36°F
Dewpoint 2°C / 36°F
Humidity 100%
Altimeter 30.19" Hg
Pressure 1022 hPa
Elevation 33
METAR K0S9 110155Z AUTO 00000KT 3/4SM BR BKN015 BKN029 02/02 A3019 RMK AO2
Observed Flight Rules
Dec-11 @ 01:55 UTC
(30 minutes ago)
LIFR
Clouds
  • Broken at 1,500' AGL
  • Broken at 2,900' AGL
Conditions
  • Mist
Temperature Dewpoint
2°C / 36°F 2°C / 36°F
Humidity Altimeter Pressure
100% 30.19" Hg 1022 hPa